createdAt,value
2023-09-27T00:02:12.780Z,17.02
2023-09-27T00:04:39.431Z,17.03
2023-09-27T00:07:06.019Z,17.06
2023-09-27T00:09:32.862Z,17.07
2023-09-27T00:11:59.710Z,17.10
2023-09-27T00:14:27.748Z,17.04
2023-09-27T00:16:55.531Z,16.95
2023-09-27T00:19:22.140Z,16.96
2023-09-27T00:21:48.598Z,17.00
2023-09-27T00:24:15.284Z,16.98
2023-09-27T00:26:41.751Z,16.90
2023-09-27T00:29:08.471Z,16.86
2023-09-27T00:31:35.064Z,16.81
2023-09-27T00:34:01.554Z,16.78
2023-09-27T00:36:28.132Z,16.70
2023-09-27T00:38:54.754Z,16.58
2023-09-27T00:41:21.581Z,16.57
2023-09-27T00:43:48.101Z,16.57
2023-09-27T00:46:17.417Z,16.36
2023-09-27T00:48:44.423Z,16.35
2023-09-27T00:51:11.052Z,16.18
2023-09-27T00:53:38.860Z,16.24
2023-09-27T00:56:07.294Z,16.16
2023-09-27T00:58:35.622Z,16.17
2023-09-27T01:01:02.133Z,16.21
2023-09-27T01:03:28.662Z,16.21
2023-09-27T01:05:55.583Z,16.20
2023-09-27T01:08:22.463Z,16.18
2023-09-27T01:10:49.220Z,16.20
2023-09-27T01:13:15.913Z,16.17
2023-09-27T01:15:42.472Z,16.18
2023-09-27T01:18:08.990Z,16.19
2023-09-27T01:20:35.545Z,16.20
2023-09-27T01:23:04.009Z,16.24
2023-09-27T01:25:33.264Z,16.16
2023-09-27T01:28:05.261Z,16.05
2023-09-27T01:30:35.087Z,15.99
2023-09-27T01:33:07.411Z,15.96
2023-09-27T01:35:42.538Z,15.98
2023-09-27T01:38:10.122Z,15.99
2023-09-27T01:40:39.746Z,15.95
2023-09-27T01:43:06.269Z,15.90
2023-09-27T01:45:33.241Z,15.87
2023-09-27T01:48:01.161Z,15.81
2023-09-27T01:50:28.744Z,15.81
2023-09-27T01:52:57.742Z,15.81
2023-09-27T01:55:25.248Z,15.81
2023-09-27T01:57:52.961Z,15.85
2023-09-27T02:00:20.399Z,15.87
2023-09-27T02:02:59.193Z,15.80
2023-09-27T02:05:27.461Z,15.70
2023-09-27T02:07:54.364Z,15.65
2023-09-27T02:10:21.772Z,15.54
2023-09-27T02:12:48.440Z,15.46
2023-09-27T02:15:16.209Z,15.38
2023-09-27T02:17:43.946Z,15.23
2023-09-27T02:20:12.531Z,15.26
2023-09-27T02:22:41.274Z,15.30
2023-09-27T02:25:12.644Z,15.26
2023-09-27T02:27:39.920Z,15.27
2023-09-27T02:30:08.702Z,15.31
2023-09-27T02:32:35.450Z,15.36
2023-09-27T02:35:02.321Z,15.39
2023-09-27T02:37:28.827Z,15.36
2023-09-27T02:39:55.342Z,15.25
2023-09-27T02:42:21.796Z,15.11
2023-09-27T02:44:48.753Z,14.87
2023-09-27T02:47:15.365Z,14.70
2023-09-27T02:49:41.895Z,14.82
2023-09-27T02:52:08.375Z,14.94
2023-09-27T02:54:34.829Z,15.02
2023-09-27T02:57:01.289Z,15.05
2023-09-27T02:59:30.543Z,15.11
2023-09-27T03:01:57.098Z,15.09
2023-09-27T03:04:23.553Z,15.06
2023-09-27T03:06:50.229Z,15.04
2023-09-27T03:09:17.761Z,15.04
2023-09-27T03:11:44.342Z,15.04
2023-09-27T03:14:10.941Z,15.02
2023-09-27T03:16:38.641Z,15.04
2023-09-27T03:19:05.597Z,15.05
2023-09-27T03:21:32.180Z,15.03
2023-09-27T03:23:58.673Z,15.00
2023-09-27T03:26:25.264Z,14.97
2023-09-27T03:28:53.197Z,14.94
2023-09-27T03:31:20.717Z,14.85
2023-09-27T03:33:50.171Z,14.83
2023-09-27T03:36:16.663Z,14.77
2023-09-27T03:38:43.360Z,14.59
2023-09-27T03:41:11.132Z,14.42
2023-09-27T03:43:37.723Z,14.45
2023-09-27T03:46:07.198Z,14.54
2023-09-27T03:48:34.566Z,14.61
2023-09-27T03:51:01.525Z,14.64
2023-09-27T03:53:30.005Z,14.66
2023-09-27T03:55:56.585Z,14.60
2023-09-27T03:58:23.223Z,14.55
2023-09-27T04:00:49.786Z,14.56
2023-09-27T04:03:17.713Z,14.57
2023-09-27T04:05:44.366Z,14.54
2023-09-27T04:08:12.514Z,14.45
2023-09-27T04:10:39.448Z,14.46
2023-09-27T04:13:06.777Z,14.44
2023-09-27T04:15:36.463Z,14.45
2023-09-27T04:18:03.628Z,14.41
2023-09-27T04:20:30.503Z,14.42
2023-09-27T04:22:57.917Z,14.45
2023-09-27T04:25:24.587Z,14.48
2023-09-27T04:27:51.998Z,14.43
2023-09-27T04:30:23.377Z,14.40
2023-09-27T04:32:55.000Z,14.38
2023-09-27T04:35:22.403Z,14.34
2023-09-27T04:37:49.752Z,14.37
2023-09-27T04:40:16.662Z,14.40
2023-09-27T04:42:44.115Z,14.38
2023-09-27T04:45:14.479Z,14.35
2023-09-27T04:47:42.146Z,14.31
2023-09-27T04:50:12.244Z,14.28
2023-09-27T04:52:40.219Z,14.24
2023-09-27T04:55:08.481Z,14.23
2023-09-27T04:57:35.100Z,14.26
2023-09-27T05:00:01.905Z,14.29
2023-09-27T05:02:28.742Z,14.29
2023-09-27T05:04:55.273Z,14.20
2023-09-27T05:07:21.795Z,14.14
2023-09-27T05:09:48.870Z,14.14
2023-09-27T05:12:15.816Z,14.18
2023-09-27T05:14:42.762Z,14.21
2023-09-27T05:17:10.393Z,14.18
2023-09-27T05:19:36.942Z,14.18
2023-09-27T05:22:03.753Z,14.20
2023-09-27T05:24:30.302Z,14.16
2023-09-27T05:27:00.508Z,14.13
2023-09-27T05:29:28.214Z,14.17
2023-09-27T05:31:54.743Z,14.19
2023-09-27T05:34:21.231Z,14.20
2023-09-27T05:36:47.696Z,14.17
2023-09-27T05:39:14.138Z,14.16
2023-09-27T05:41:40.614Z,14.13
2023-09-27T05:44:07.143Z,14.12
2023-09-27T05:46:34.657Z,14.08
2023-09-27T05:49:06.213Z,14.03
2023-09-27T05:51:32.763Z,14.02
2023-09-27T05:53:59.704Z,14.07
2023-09-27T05:56:26.744Z,14.07
2023-09-27T05:58:53.733Z,14.07
2023-09-27T06:01:20.983Z,14.06
2023-09-27T06:03:48.185Z,14.03
2023-09-27T06:06:15.118Z,13.96
2023-09-27T06:08:42.377Z,13.86
2023-09-27T06:11:10.500Z,13.87
2023-09-27T06:13:39.962Z,13.94
2023-09-27T06:16:18.101Z,13.97
2023-09-27T06:18:44.733Z,13.99
2023-09-27T06:21:11.231Z,14.03
2023-09-27T06:23:37.826Z,14.10
2023-09-27T06:26:04.327Z,14.12
2023-09-27T06:28:30.860Z,14.14
2023-09-27T06:30:57.397Z,14.18
2023-09-27T06:33:23.967Z,14.22
2023-09-27T06:35:50.448Z,14.27
2023-09-27T06:38:20.741Z,14.33
2023-09-27T06:40:47.257Z,14.39
2023-09-27T06:43:15.269Z,14.47
2023-09-27T06:45:41.805Z,14.56
2023-09-27T06:48:08.547Z,14.65
2023-09-27T06:50:35.300Z,14.71
2023-09-27T06:53:19.828Z,14.82
2023-09-27T06:55:50.390Z,14.89
2023-09-27T06:58:24.117Z,14.98
2023-09-27T07:00:52.506Z,15.06
2023-09-27T07:03:20.732Z,15.12
2023-09-27T07:05:47.821Z,15.21
2023-09-27T07:08:14.723Z,15.29
2023-09-27T07:10:41.806Z,15.39
2023-09-27T07:13:08.471Z,15.49
2023-09-27T07:15:35.019Z,15.61
2023-09-27T07:18:01.747Z,15.74
2023-09-27T07:20:29.972Z,15.88
2023-09-27T07:22:57.516Z,15.99
2023-09-27T07:25:24.575Z,16.16
2023-09-27T07:27:52.726Z,16.28
2023-09-27T07:30:22.032Z,16.46
2023-09-27T07:32:49.032Z,16.62
2023-09-27T07:35:17.919Z,16.77
2023-09-27T07:37:45.269Z,16.87
2023-09-27T07:40:13.775Z,17.01
2023-09-27T07:42:45.426Z,17.16
2023-09-27T07:45:16.649Z,17.31
2023-09-27T07:47:43.798Z,17.43
2023-09-27T07:50:11.317Z,17.52
2023-09-27T07:52:38.298Z,17.64
2023-09-27T07:55:05.785Z,17.72
2023-09-27T07:57:32.307Z,17.80
2023-09-27T07:59:59.389Z,17.90
2023-09-27T08:02:27.285Z,17.98
2023-09-27T08:04:53.944Z,18.06
2023-09-27T08:07:20.421Z,18.15
2023-09-27T08:09:46.879Z,18.22
2023-09-27T08:12:14.278Z,18.34
2023-09-27T08:14:40.782Z,18.41
2023-09-27T08:17:08.249Z,18.48
2023-09-27T08:19:34.855Z,18.56
2023-09-27T08:22:01.350Z,18.67
2023-09-27T08:24:27.799Z,18.80
2023-09-27T08:26:54.345Z,18.89
2023-09-27T08:29:22.703Z,18.99
2023-09-27T08:31:49.262Z,19.09
2023-09-27T08:34:15.718Z,19.18
2023-09-27T08:36:42.182Z,19.30
2023-09-27T08:39:10.648Z,19.38
2023-09-27T08:41:39.166Z,19.49
2023-09-27T08:44:07.367Z,19.56
2023-09-27T08:46:35.919Z,19.65
2023-09-27T08:49:03.779Z,19.76
2023-09-27T08:51:31.149Z,19.85
2023-09-27T08:53:57.915Z,19.91
2023-09-27T08:56:25.732Z,20.03
2023-09-27T08:58:52.475Z,20.12
2023-09-27T09:01:19.464Z,20.23
2023-09-27T09:03:47.903Z,20.35
2023-09-27T09:06:16.866Z,20.43
2023-09-27T09:08:44.594Z,20.51
2023-09-27T09:11:12.613Z,20.60
2023-09-27T09:14:01.189Z,20.70
2023-09-27T09:16:27.754Z,20.80
2023-09-27T09:18:56.654Z,20.86
2023-09-27T09:21:26.293Z,20.94
2023-09-27T09:23:52.987Z,21.01
2023-09-27T09:26:31.024Z,21.08
2023-09-27T09:29:01.095Z,21.17
2023-09-27T09:31:31.967Z,21.29
2023-09-27T09:34:09.418Z,21.38
2023-09-27T09:36:37.968Z,21.43
2023-09-27T09:39:18.407Z,21.53
2023-09-27T09:41:47.263Z,21.71
2023-09-27T09:44:22.035Z,21.74
2023-09-27T09:46:49.907Z,21.80
2023-09-27T09:49:17.068Z,21.90
2023-09-27T09:51:48.208Z,22.01
2023-09-27T09:54:27.986Z,22.07
2023-09-27T09:57:07.206Z,22.20
2023-09-27T09:59:50.929Z,22.35
2023-09-27T10:02:28.122Z,22.42
2023-09-27T10:04:58.090Z,22.50
2023-09-27T10:07:24.830Z,22.50
2023-09-27T10:09:51.282Z,22.59
2023-09-27T10:12:19.483Z,22.70
2023-09-27T10:14:47.154Z,22.80
2023-09-27T10:17:23.812Z,22.86
2023-09-27T10:20:16.288Z,22.95
2023-09-27T10:22:44.710Z,23.00
2023-09-27T10:25:32.758Z,23.11
2023-09-27T10:28:16.384Z,23.14
2023-09-27T10:30:42.835Z,23.18
2023-09-27T10:33:18.169Z,23.26
2023-09-27T10:36:08.892Z,23.33
2023-09-27T10:38:44.125Z,23.53
2023-09-27T10:41:33.706Z,23.64
2023-09-27T10:44:01.325Z,23.66
2023-09-27T10:46:28.048Z,23.73
2023-09-27T10:49:01.850Z,23.71
2023-09-27T10:51:28.300Z,23.83
2023-09-27T10:53:57.625Z,23.92
2023-09-27T10:56:24.221Z,23.94
2023-09-27T10:58:50.940Z,24.04
2023-09-27T11:01:21.395Z,24.09
2023-09-27T11:03:47.949Z,24.16
2023-09-27T11:06:17.092Z,24.19
2023-09-27T11:08:44.230Z,24.26
2023-09-27T11:11:14.183Z,24.33
2023-09-27T11:13:47.192Z,24.36
2023-09-27T11:16:19.609Z,24.37
2023-09-27T11:18:47.681Z,24.41
2023-09-27T11:21:14.940Z,24.48
2023-09-27T11:24:02.061Z,24.54
2023-09-27T11:26:30.397Z,24.58
2023-09-27T11:29:05.047Z,24.70
2023-09-27T11:31:33.317Z,24.75
2023-09-27T11:34:32.517Z,24.82
2023-09-27T11:37:00.407Z,24.92
2023-09-27T11:39:51.675Z,24.92
2023-09-27T11:42:22.387Z,24.94
2023-09-27T11:45:05.704Z,24.94
2023-09-27T11:47:36.253Z,24.98
2023-09-27T11:50:02.734Z,24.96
2023-09-27T11:52:29.190Z,24.97
2023-09-27T11:54:55.642Z,24.97
2023-09-27T11:57:22.111Z,24.98
2023-09-27T11:59:48.624Z,25.08
2023-09-27T12:02:26.810Z,25.17
2023-09-27T12:04:56.254Z,25.22
2023-09-27T12:07:22.884Z,25.27
2023-09-27T12:09:49.936Z,25.26
2023-09-27T12:12:16.466Z,25.26
2023-09-27T12:14:42.959Z,25.32
2023-09-27T12:17:10.258Z,25.39
2023-09-27T12:19:36.823Z,25.44
2023-09-27T12:22:04.482Z,25.48
2023-09-27T12:24:31.865Z,25.53
2023-09-27T12:26:58.317Z,25.57
2023-09-27T12:29:24.816Z,25.62
2023-09-27T12:31:51.342Z,25.72
2023-09-27T12:34:17.808Z,25.81
2023-09-27T12:36:44.277Z,25.80
2023-09-27T12:39:11.355Z,25.81
2023-09-27T12:41:37.833Z,25.80
2023-09-27T12:44:04.527Z,25.78
2023-09-27T12:46:31.006Z,25.81
2023-09-27T12:48:57.522Z,25.92
2023-09-27T12:51:34.881Z,25.90
2023-09-27T12:54:05.642Z,25.98
2023-09-27T12:56:32.177Z,26.07
2023-09-27T12:58:58.666Z,26.23
2023-09-27T13:01:25.160Z,26.32
2023-09-27T13:03:51.770Z,26.30
2023-09-27T13:06:18.269Z,26.22
2023-09-27T13:08:44.896Z,26.24
2023-09-27T13:11:11.487Z,26.31
2023-09-27T13:13:38.066Z,26.31
2023-09-27T13:16:04.644Z,26.28
2023-09-27T13:18:31.210Z,26.22
2023-09-27T13:20:57.691Z,26.19
2023-09-27T13:23:24.157Z,26.20
2023-09-27T13:25:54.673Z,26.24
2023-09-27T13:28:21.216Z,26.29
2023-09-27T13:30:48.078Z,26.30
2023-09-27T13:33:14.943Z,26.28
2023-09-27T13:35:41.448Z,26.20
2023-09-27T13:38:09.007Z,26.20
2023-09-27T13:40:36.212Z,26.28
2023-09-27T13:43:02.941Z,26.30
2023-09-27T13:45:29.557Z,26.26
2023-09-27T13:47:56.140Z,26.23
2023-09-27T13:50:22.695Z,26.21
2023-09-27T13:52:49.190Z,26.18
2023-09-27T13:55:16.052Z,26.16
2023-09-27T13:57:42.794Z,26.15
2023-09-27T14:00:10.857Z,26.07
2023-09-27T14:02:37.430Z,26.03
2023-09-27T14:05:04.691Z,26.06
2023-09-27T14:07:32.079Z,26.08
2023-09-27T14:09:58.896Z,26.09
2023-09-27T14:12:25.409Z,26.12
2023-09-27T14:14:52.014Z,26.16
2023-09-27T14:17:18.527Z,26.23
2023-09-27T14:19:45.377Z,26.28
2023-09-27T14:22:11.941Z,26.29
2023-09-27T14:24:38.476Z,26.28
2023-09-27T14:27:05.583Z,26.25
2023-09-27T14:29:36.197Z,26.27
2023-09-27T14:32:07.214Z,26.30
2023-09-27T14:37:08.422Z,26.34
2023-09-27T14:39:35.373Z,26.38
2023-09-27T14:42:01.866Z,26.41
2023-09-27T14:44:28.329Z,26.41
2023-09-27T14:46:54.921Z,26.41
2023-09-27T14:49:21.491Z,26.40
2023-09-27T14:51:48.103Z,26.41
2023-09-27T14:54:16.237Z,26.42
2023-09-27T14:56:44.017Z,26.40
2023-09-27T14:59:10.496Z,26.39
2023-09-27T15:01:37.073Z,26.39
2023-09-27T15:04:03.730Z,26.41
2023-09-27T15:06:30.244Z,26.41
2023-09-27T15:08:56.702Z,26.40
2023-09-27T15:11:24.600Z,26.36
2023-09-27T15:13:52.140Z,26.35
2023-09-27T15:16:20.198Z,26.32
2023-09-27T15:18:47.936Z,26.31
2023-09-27T15:21:14.977Z,26.26
2023-09-27T15:23:42.300Z,26.22
2023-09-27T15:26:08.986Z,26.19
2023-09-27T15:28:35.916Z,26.16
2023-09-27T15:31:04.265Z,26.13
2023-09-27T15:33:30.791Z,26.08
2023-09-27T15:35:57.606Z,26.03
2023-09-27T15:38:30.383Z,25.97
2023-09-27T15:40:56.894Z,25.90
2023-09-27T15:43:25.145Z,25.84
2023-09-27T15:46:04.280Z,25.77
2023-09-27T15:48:35.077Z,25.71
2023-09-27T15:51:08.574Z,25.64
2023-09-27T15:53:36.237Z,25.58
2023-09-27T15:56:04.395Z,25.52
2023-09-27T15:58:33.141Z,25.45
2023-09-27T16:01:04.867Z,25.41
2023-09-27T16:03:32.005Z,25.35
2023-09-27T16:05:59.438Z,25.30
2023-09-27T16:08:27.900Z,25.25
2023-09-27T16:10:55.650Z,25.20
2023-09-27T16:13:23.870Z,25.12
2023-09-27T16:15:52.450Z,25.05
2023-09-27T16:18:20.745Z,25.01
2023-09-27T16:20:47.954Z,24.96
2023-09-27T16:23:15.309Z,24.97
2023-09-27T16:25:42.922Z,24.92
2023-09-27T16:28:09.478Z,24.84
2023-09-27T16:30:36.760Z,24.76
2023-09-27T16:33:05.563Z,24.69
2023-09-27T16:35:36.905Z,24.62
2023-09-27T16:38:03.942Z,24.58
2023-09-27T16:40:30.504Z,24.54
2023-09-27T16:42:58.772Z,24.52
2023-09-27T16:45:25.350Z,24.40
2023-09-27T16:47:51.877Z,24.30
2023-09-27T16:50:18.496Z,24.22
2023-09-27T16:52:44.998Z,24.19
2023-09-27T16:55:12.189Z,24.13
2023-09-27T16:57:39.675Z,24.06
2023-09-27T17:00:11.322Z,23.98
2023-09-27T17:02:39.230Z,23.91
2023-09-27T17:05:06.930Z,23.90
2023-09-27T17:07:34.982Z,23.89
2023-09-27T17:10:02.970Z,23.89
2023-09-27T17:12:29.521Z,23.86
2023-09-27T17:14:56.119Z,23.78
2023-09-27T17:17:22.754Z,23.70
2023-09-27T17:19:52.781Z,23.62
2023-09-27T17:22:20.277Z,23.55
2023-09-27T17:24:47.047Z,23.50
2023-09-27T17:27:13.918Z,23.44
2023-09-27T17:29:40.415Z,23.39
2023-09-27T17:32:07.010Z,23.31
2023-09-27T17:34:33.544Z,23.23
2023-09-27T17:37:00.056Z,23.12
2023-09-27T17:39:26.661Z,23.04
2023-09-27T17:41:53.140Z,22.96
2023-09-27T17:44:19.874Z,22.84
2023-09-27T17:46:46.414Z,22.74
2023-09-27T17:49:12.994Z,22.67
2023-09-27T17:51:40.960Z,22.65
2023-09-27T17:54:09.545Z,22.62
2023-09-27T17:56:36.055Z,22.56
2023-09-27T17:59:02.588Z,22.50
2023-09-27T18:01:29.110Z,22.49
2023-09-27T18:03:56.608Z,22.45
2023-09-27T18:06:23.354Z,22.40
2023-09-27T18:08:49.910Z,22.32
2023-09-27T18:11:17.096Z,22.28
2023-09-27T18:13:44.419Z,22.20
2023-09-27T18:16:19.367Z,22.15
2023-09-27T18:18:47.698Z,22.13
2023-09-27T18:21:16.740Z,22.09
2023-09-27T18:23:44.474Z,22.00
2023-09-27T18:26:11.709Z,21.89
2023-09-27T18:28:38.795Z,21.82
2023-09-27T18:31:06.104Z,21.77
2023-09-27T18:33:32.740Z,21.70
2023-09-27T18:35:59.354Z,21.74
2023-09-27T18:38:26.756Z,21.81
2023-09-27T18:40:53.412Z,21.80
2023-09-27T18:43:20.033Z,21.70
2023-09-27T18:45:47.145Z,21.67
2023-09-27T18:48:19.494Z,21.62
2023-09-27T18:50:47.764Z,21.57
2023-09-27T18:53:14.602Z,21.51
2023-09-27T18:55:41.153Z,21.45
2023-09-27T18:58:10.087Z,21.39
2023-09-27T19:00:36.867Z,21.31
2023-09-27T19:03:03.676Z,21.20
2023-09-27T19:05:31.234Z,21.13
2023-09-27T19:07:58.200Z,21.11
2023-09-27T19:10:25.011Z,21.08
2023-09-27T19:12:51.462Z,21.01
2023-09-27T19:15:18.047Z,20.96
2023-09-27T19:17:44.567Z,20.97
2023-09-27T19:20:11.498Z,20.98
2023-09-27T19:22:38.054Z,21.02
2023-09-27T19:25:04.910Z,21.02
2023-09-27T19:27:31.383Z,21.03
2023-09-27T19:29:57.878Z,21.05
2023-09-27T19:32:24.713Z,20.99
2023-09-27T19:34:51.285Z,20.96
2023-09-27T19:37:17.754Z,20.93
2023-09-27T19:39:44.207Z,20.93
2023-09-27T19:42:10.802Z,20.89
2023-09-27T19:44:37.292Z,20.88
2023-09-27T19:47:03.945Z,20.87
2023-09-27T19:49:30.423Z,20.88
2023-09-27T19:51:56.971Z,20.82
2023-09-27T19:54:23.441Z,20.77
2023-09-27T19:56:50.015Z,20.73
2023-09-27T19:59:16.562Z,20.75
2023-09-27T20:01:43.272Z,20.77
2023-09-27T20:04:09.948Z,20.80
2023-09-27T20:06:40.943Z,20.74
2023-09-27T20:09:10.949Z,20.71
2023-09-27T20:11:37.989Z,20.63
2023-09-27T20:14:05.118Z,20.59
2023-09-27T20:16:33.869Z,20.49
2023-09-27T20:19:01.227Z,20.43
2023-09-27T20:21:27.768Z,20.36
2023-09-27T20:23:54.422Z,20.34
2023-09-27T20:26:21.039Z,20.32
2023-09-27T20:28:48.162Z,20.32
2023-09-27T20:31:16.080Z,20.33
2023-09-27T20:33:42.570Z,20.35
2023-09-27T20:36:13.363Z,20.34
2023-09-27T20:38:40.289Z,20.37
2023-09-27T20:41:06.800Z,20.46
2023-09-27T20:43:33.345Z,20.55
2023-09-27T20:45:59.834Z,20.67
2023-09-27T20:48:26.612Z,20.70
2023-09-27T20:50:58.052Z,20.76
2023-09-27T20:53:25.444Z,20.79
2023-09-27T20:55:53.983Z,20.81
2023-09-27T20:58:20.946Z,20.86
2023-09-27T21:00:47.483Z,20.87
2023-09-27T21:03:14.089Z,20.87
2023-09-27T21:05:40.748Z,20.81
2023-09-27T21:08:07.270Z,20.77
2023-09-27T21:10:34.112Z,20.75
2023-09-27T21:13:00.608Z,20.65
2023-09-27T21:15:27.340Z,20.63
2023-09-27T21:17:53.801Z,20.58
2023-09-27T21:20:20.280Z,20.52
2023-09-27T21:22:46.740Z,20.47
2023-09-27T21:25:13.249Z,20.40
2023-09-27T21:27:39.984Z,20.32
2023-09-27T21:30:07.374Z,20.27
2023-09-27T21:32:33.959Z,20.21
2023-09-27T21:35:00.662Z,20.17
2023-09-27T21:37:27.628Z,20.13
2023-09-27T21:39:54.789Z,20.08
2023-09-27T21:42:21.614Z,20.02
2023-09-27T21:44:48.145Z,19.98
2023-09-27T21:47:14.652Z,19.89
2023-09-27T21:49:41.120Z,19.81
2023-09-27T21:52:07.554Z,19.77
2023-09-27T21:54:34.039Z,19.74
2023-09-27T21:57:00.636Z,19.71
2023-09-27T21:59:27.090Z,19.68
2023-09-27T22:01:54.515Z,19.63
2023-09-27T22:04:21.992Z,19.56
2023-09-27T22:06:48.642Z,19.52
2023-09-27T22:09:15.152Z,19.49
2023-09-27T22:11:41.973Z,19.46
2023-09-27T22:14:08.505Z,19.45
2023-09-27T22:16:35.127Z,19.40
2023-09-27T22:19:02.012Z,19.36
2023-09-27T22:21:30.004Z,19.33
2023-09-27T22:24:09.274Z,19.24
2023-09-27T22:26:35.709Z,19.13
2023-09-27T22:29:02.271Z,19.06
2023-09-27T22:31:32.195Z,19.02
2023-09-27T22:34:05.782Z,18.92
2023-09-27T22:36:32.754Z,18.88
2023-09-27T22:39:09.502Z,18.83
2023-09-27T22:41:40.738Z,18.82
2023-09-27T22:44:19.758Z,18.79
2023-09-27T22:46:51.083Z,18.81
2023-09-27T22:49:18.669Z,18.70
2023-09-27T22:51:47.078Z,18.59
2023-09-27T22:54:21.107Z,18.48
2023-09-27T22:56:49.713Z,18.40
2023-09-27T22:59:16.928Z,18.21
2023-09-27T23:01:45.000Z,17.99
2023-09-27T23:04:16.299Z,17.93
2023-09-27T23:06:47.979Z,17.85
2023-09-27T23:09:25.308Z,17.85
2023-09-27T23:12:13.445Z,18.02
2023-09-27T23:14:58.487Z,18.14
2023-09-27T23:17:29.385Z,18.18
2023-09-27T23:19:55.824Z,18.27
2023-09-27T23:22:22.305Z,18.28
2023-09-27T23:25:06.666Z,18.22
2023-09-27T23:27:34.071Z,17.98
2023-09-27T23:30:00.640Z,17.98
2023-09-27T23:32:31.321Z,17.94
2023-09-27T23:37:34.399Z,17.79
2023-09-27T23:40:02.186Z,17.68
2023-09-27T23:42:35.637Z,17.67
2023-09-27T23:45:11.288Z,17.70
2023-09-27T23:47:39.400Z,17.66
2023-09-27T23:50:12.013Z,17.64
2023-09-27T23:52:46.441Z,17.53
2023-09-27T23:55:18.001Z,17.42
2023-09-27T23:57:48.252Z,17.45
